sensor_id;sensor_type;location;lat;lon;timestamp;temperature;humidity
41318;DHT22;27067;51.554;7.026;2022-08-18T00:01:22;24.50;87.30
41318;DHT22;27067;51.554;7.026;2022-08-18T00:03:48;24.50;87.10
41318;DHT22;27067;51.554;7.026;2022-08-18T00:06:15;24.50;87.30
41318;DHT22;27067;51.554;7.026;2022-08-18T00:08:40;24.60;87.00
41318;DHT22;27067;51.554;7.026;2022-08-18T00:11:06;24.50;87.00
41318;DHT22;27067;51.554;7.026;2022-08-18T00:13:32;24.50;86.70
41318;DHT22;27067;51.554;7.026;2022-08-18T00:15:58;24.50;86.70
41318;DHT22;27067;51.554;7.026;2022-08-18T00:18:24;24.50;86.60
41318;DHT22;27067;51.554;7.026;2022-08-18T00:20:49;24.50;86.40
41318;DHT22;27067;51.554;7.026;2022-08-18T00:23:15;24.50;86.20
41318;DHT22;27067;51.554;7.026;2022-08-18T00:25:40;24.50;86.50
41318;DHT22;27067;51.554;7.026;2022-08-18T00:28:06;24.50;86.20
41318;DHT22;27067;51.554;7.026;2022-08-18T00:30:32;24.50;86.30
41318;DHT22;27067;51.554;7.026;2022-08-18T00:32:58;24.50;86.00
41318;DHT22;27067;51.554;7.026;2022-08-18T00:35:25;24.50;86.10
41318;DHT22;27067;51.554;7.026;2022-08-18T00:37:52;24.50;86.20
41318;DHT22;27067;51.554;7.026;2022-08-18T00:40:21;24.50;86.10
41318;DHT22;27067;51.554;7.026;2022-08-18T00:42:48;24.50;86.10
41318;DHT22;27067;51.554;7.026;2022-08-18T00:45:16;24.50;86.60
41318;DHT22;27067;51.554;7.026;2022-08-18T00:47:42;24.50;86.20
41318;DHT22;27067;51.554;7.026;2022-08-18T00:50:08;24.50;86.10
41318;DHT22;27067;51.554;7.026;2022-08-18T00:52:34;24.50;86.90
41318;DHT22;27067;51.554;7.026;2022-08-18T00:55:00;24.50;85.80
41318;DHT22;27067;51.554;7.026;2022-08-18T00:57:27;24.50;85.80
41318;DHT22;27067;51.554;7.026;2022-08-18T00:59:56;24.60;85.90
41318;DHT22;27067;51.554;7.026;2022-08-18T01:02:26;24.50;86.10
41318;DHT22;27067;51.554;7.026;2022-08-18T01:07:29;24.50;85.90
41318;DHT22;27067;51.554;7.026;2022-08-18T01:09:56;24.50;85.90
41318;DHT22;27067;51.554;7.026;2022-08-18T01:12:27;24.50;85.80
41318;DHT22;27067;51.554;7.026;2022-08-18T01:14:52;24.50;86.00
41318;DHT22;27067;51.554;7.026;2022-08-18T01:17:19;24.50;85.90
41318;DHT22;27067;51.554;7.026;2022-08-18T01:20:04;24.50;85.70
41318;DHT22;27067;51.554;7.026;2022-08-18T01:23:02;24.50;85.90
41318;DHT22;27067;51.554;7.026;2022-08-18T01:25:32;24.50;85.70
41318;DHT22;27067;51.554;7.026;2022-08-18T01:28:16;24.50;85.70
41318;DHT22;27067;51.554;7.026;2022-08-18T01:30:51;24.50;85.40
41318;DHT22;27067;51.554;7.026;2022-08-18T01:33:20;24.50;85.30
41318;DHT22;27067;51.554;7.026;2022-08-18T01:35:46;24.50;85.40
41318;DHT22;27067;51.554;7.026;2022-08-18T01:38:14;24.50;85.50
41318;DHT22;27067;51.554;7.026;2022-08-18T01:40:40;24.50;85.60
41318;DHT22;27067;51.554;7.026;2022-08-18T01:43:07;24.50;85.70
41318;DHT22;27067;51.554;7.026;2022-08-18T01:45:32;24.50;85.70
41318;DHT22;27067;51.554;7.026;2022-08-18T01:47:59;24.50;85.80
41318;DHT22;27067;51.554;7.026;2022-08-18T01:50:24;24.50;85.80
41318;DHT22;27067;51.554;7.026;2022-08-18T01:52:50;24.50;85.80
41318;DHT22;27067;51.554;7.026;2022-08-18T01:55:18;24.50;85.80
41318;DHT22;27067;51.554;7.026;2022-08-18T01:57:44;24.60;85.90
41318;DHT22;27067;51.554;7.026;2022-08-18T02:00:10;24.50;85.70
41318;DHT22;27067;51.554;7.026;2022-08-18T02:02:36;24.50;85.80
41318;DHT22;27067;51.554;7.026;2022-08-18T02:05:04;24.60;86.10
41318;DHT22;27067;51.554;7.026;2022-08-18T02:07:32;24.50;86.10
41318;DHT22;27067;51.554;7.026;2022-08-18T02:09:58;24.50;85.90
41318;DHT22;27067;51.554;7.026;2022-08-18T02:12:23;24.50;86.00
41318;DHT22;27067;51.554;7.026;2022-08-18T02:14:49;24.50;85.80
41318;DHT22;27067;51.554;7.026;2022-08-18T02:17:16;24.50;85.90
41318;DHT22;27067;51.554;7.026;2022-08-18T02:19:42;24.50;86.00
41318;DHT22;27067;51.554;7.026;2022-08-18T02:22:09;24.50;85.90
41318;DHT22;27067;51.554;7.026;2022-08-18T02:24:35;24.50;86.00
41318;DHT22;27067;51.554;7.026;2022-08-18T02:27:01;24.50;86.00
41318;DHT22;27067;51.554;7.026;2022-08-18T02:29:27;24.50;86.10
41318;DHT22;27067;51.554;7.026;2022-08-18T02:31:53;24.50;86.20
41318;DHT22;27067;51.554;7.026;2022-08-18T02:34:18;24.50;86.10
41318;DHT22;27067;51.554;7.026;2022-08-18T02:36:44;24.50;86.10
41318;DHT22;27067;51.554;7.026;2022-08-18T02:39:10;24.50;86.00
41318;DHT22;27067;51.554;7.026;2022-08-18T02:41:35;24.50;86.10
41318;DHT22;27067;51.554;7.026;2022-08-18T02:44:01;24.50;86.20
41318;DHT22;27067;51.554;7.026;2022-08-18T02:46:27;24.40;86.00
41318;DHT22;27067;51.554;7.026;2022-08-18T02:48:52;24.40;86.20
41318;DHT22;27067;51.554;7.026;2022-08-18T02:51:18;24.40;86.30
41318;DHT22;27067;51.554;7.026;2022-08-18T02:53:45;24.40;86.40
41318;DHT22;27067;51.554;7.026;2022-08-18T02:56:21;24.30;86.30
41318;DHT22;27067;51.554;7.026;2022-08-18T02:58:48;24.30;86.30
41318;DHT22;27067;51.554;7.026;2022-08-18T03:01:13;24.30;85.90
41318;DHT22;27067;51.554;7.026;2022-08-18T03:03:39;24.20;86.40
41318;DHT22;27067;51.554;7.026;2022-08-18T03:06:05;24.20;86.60
41318;DHT22;27067;51.554;7.026;2022-08-18T03:08:30;24.20;87.20
41318;DHT22;27067;51.554;7.026;2022-08-18T03:10:56;24.20;87.20
41318;DHT22;27067;51.554;7.026;2022-08-18T03:13:22;24.20;87.40
41318;DHT22;27067;51.554;7.026;2022-08-18T03:15:47;24.20;87.40
41318;DHT22;27067;51.554;7.026;2022-08-18T03:18:13;24.10;87.30
41318;DHT22;27067;51.554;7.026;2022-08-18T03:20:39;24.10;87.30
41318;DHT22;27067;51.554;7.026;2022-08-18T03:23:04;24.10;87.30
41318;DHT22;27067;51.554;7.026;2022-08-18T03:25:30;24.10;88.30
41318;DHT22;27067;51.554;7.026;2022-08-18T03:27:56;24.10;88.30
41318;DHT22;27067;51.554;7.026;2022-08-18T03:30:21;24.00;88.20
41318;DHT22;27067;51.554;7.026;2022-08-18T03:32:48;24.10;88.40
41318;DHT22;27067;51.554;7.026;2022-08-18T03:35:14;24.00;88.50
41318;DHT22;27067;51.554;7.026;2022-08-18T03:37:41;24.10;88.90
41318;DHT22;27067;51.554;7.026;2022-08-18T03:40:06;24.10;88.70
41318;DHT22;27067;51.554;7.026;2022-08-18T03:42:32;24.10;88.50
41318;DHT22;27067;51.554;7.026;2022-08-18T03:44:58;24.20;88.50
41318;DHT22;27067;51.554;7.026;2022-08-18T03:47:23;24.20;88.50
41318;DHT22;27067;51.554;7.026;2022-08-18T03:49:49;24.20;89.00
41318;DHT22;27067;51.554;7.026;2022-08-18T03:52:14;24.30;89.40
41318;DHT22;27067;51.554;7.026;2022-08-18T03:54:40;24.30;89.60
41318;DHT22;27067;51.554;7.026;2022-08-18T03:57:09;24.30;89.60
41318;DHT22;27067;51.554;7.026;2022-08-18T03:59:35;24.30;89.60
41318;DHT22;27067;51.554;7.026;2022-08-18T04:02:01;24.30;89.40
41318;DHT22;27067;51.554;7.026;2022-08-18T04:04:27;24.30;89.20
41318;DHT22;27067;51.554;7.026;2022-08-18T04:06:54;24.30;89.30
41318;DHT22;27067;51.554;7.026;2022-08-18T04:09:22;24.40;89.30
41318;DHT22;27067;51.554;7.026;2022-08-18T04:11:49;24.30;89.10
41318;DHT22;27067;51.554;7.026;2022-08-18T04:14:16;24.20;89.00
41318;DHT22;27067;51.554;7.026;2022-08-18T04:16:41;24.20;89.50
41318;DHT22;27067;51.554;7.026;2022-08-18T04:19:07;24.10;89.50
41318;DHT22;27067;51.554;7.026;2022-08-18T04:21:35;24.10;89.90
41318;DHT22;27067;51.554;7.026;2022-08-18T04:24:00;24.00;89.80
41318;DHT22;27067;51.554;7.026;2022-08-18T04:26:30;24.00;90.10
41318;DHT22;27067;51.554;7.026;2022-08-18T04:28:55;23.90;90.10
41318;DHT22;27067;51.554;7.026;2022-08-18T04:31:21;23.90;90.30
41318;DHT22;27067;51.554;7.026;2022-08-18T04:33:49;23.80;90.20
41318;DHT22;27067;51.554;7.026;2022-08-18T04:36:14;23.80;90.60
41318;DHT22;27067;51.554;7.026;2022-08-18T04:38:41;23.80;90.40
41318;DHT22;27067;51.554;7.026;2022-08-18T04:41:07;23.80;90.50
41318;DHT22;27067;51.554;7.026;2022-08-18T04:43:33;23.80;90.50
41318;DHT22;27067;51.554;7.026;2022-08-18T04:45:59;23.70;90.60
41318;DHT22;27067;51.554;7.026;2022-08-18T04:48:27;23.70;90.60
41318;DHT22;27067;51.554;7.026;2022-08-18T04:50:53;23.70;90.70
41318;DHT22;27067;51.554;7.026;2022-08-18T04:53:18;23.70;90.70
41318;DHT22;27067;51.554;7.026;2022-08-18T04:56:03;23.70;90.70
41318;DHT22;27067;51.554;7.026;2022-08-18T04:58:28;23.60;90.80
41318;DHT22;27067;51.554;7.026;2022-08-18T05:00:57;23.60;90.80
41318;DHT22;27067;51.554;7.026;2022-08-18T05:03:23;23.60;90.90
41318;DHT22;27067;51.554;7.026;2022-08-18T05:05:54;23.60;90.90
41318;DHT22;27067;51.554;7.026;2022-08-18T05:08:20;23.60;91.00
41318;DHT22;27067;51.554;7.026;2022-08-18T05:10:46;23.60;90.90
41318;DHT22;27067;51.554;7.026;2022-08-18T05:13:12;23.60;91.10
41318;DHT22;27067;51.554;7.026;2022-08-18T05:15:41;23.50;91.10
41318;DHT22;27067;51.554;7.026;2022-08-18T05:18:08;23.40;90.90
41318;DHT22;27067;51.554;7.026;2022-08-18T05:20:33;23.50;91.30
41318;DHT22;27067;51.554;7.026;2022-08-18T05:23:00;23.60;91.20
41318;DHT22;27067;51.554;7.026;2022-08-18T05:25:26;23.50;90.80
41318;DHT22;27067;51.554;7.026;2022-08-18T05:27:53;23.50;90.70
41318;DHT22;27067;51.554;7.026;2022-08-18T05:30:19;23.50;90.90
41318;DHT22;27067;51.554;7.026;2022-08-18T05:32:44;23.50;91.10
41318;DHT22;27067;51.554;7.026;2022-08-18T05:35:12;23.50;90.70
41318;DHT22;27067;51.554;7.026;2022-08-18T05:40:05;23.50;91.10
41318;DHT22;27067;51.554;7.026;2022-08-18T05:42:36;23.50;90.90
41318;DHT22;27067;51.554;7.026;2022-08-18T05:45:02;23.50;90.60
41318;DHT22;27067;51.554;7.026;2022-08-18T05:47:32;23.60;90.70
41318;DHT22;27067;51.554;7.026;2022-08-18T05:50:02;23.60;90.70
41318;DHT22;27067;51.554;7.026;2022-08-18T05:55:00;23.70;90.70
41318;DHT22;27067;51.554;7.026;2022-08-18T05:57:53;23.80;91.10
41318;DHT22;27067;51.554;7.026;2022-08-18T06:00:20;23.90;91.60
41318;DHT22;27067;51.554;7.026;2022-08-18T06:08:08;24.00;91.30
41318;DHT22;27067;51.554;7.026;2022-08-18T06:10:35;24.00;91.20
41318;DHT22;27067;51.554;7.026;2022-08-18T06:13:01;24.00;91.00
41318;DHT22;27067;51.554;7.026;2022-08-18T06:28:19;24.20;90.60
41318;DHT22;27067;51.554;7.026;2022-08-18T06:30:47;24.20;90.50
41318;DHT22;27067;51.554;7.026;2022-08-18T06:36:01;24.20;90.40
41318;DHT22;27067;51.554;7.026;2022-08-18T06:38:37;24.20;90.30
41318;DHT22;27067;51.554;7.026;2022-08-18T06:43:53;24.20;90.20
41318;DHT22;27067;51.554;7.026;2022-08-18T06:46:28;24.20;90.20
41318;DHT22;27067;51.554;7.026;2022-08-18T06:48:58;24.20;90.20
41318;DHT22;27067;51.554;7.026;2022-08-18T06:51:27;24.20;90.10
41318;DHT22;27067;51.554;7.026;2022-08-18T06:53:58;24.20;90.10
41318;DHT22;27067;51.554;7.026;2022-08-18T06:58:50;24.20;90.00
41318;DHT22;27067;51.554;7.026;2022-08-18T07:01:20;24.30;90.00
41318;DHT22;27067;51.554;7.026;2022-08-18T07:03:53;24.30;89.90
41318;DHT22;27067;51.554;7.026;2022-08-18T07:08:47;24.30;89.70
41318;DHT22;27067;51.554;7.026;2022-08-18T07:13:42;24.30;89.60
41318;DHT22;27067;51.554;7.026;2022-08-18T07:16:16;24.30;89.50
41318;DHT22;27067;51.554;7.026;2022-08-18T07:18:42;24.30;89.50
41318;DHT22;27067;51.554;7.026;2022-08-18T07:21:08;24.30;89.40
41318;DHT22;27067;51.554;7.026;2022-08-18T07:23:51;24.30;89.40
41318;DHT22;27067;51.554;7.026;2022-08-18T07:26:21;24.30;89.30
41318;DHT22;27067;51.554;7.026;2022-08-18T07:28:50;24.30;89.20
41318;DHT22;27067;51.554;7.026;2022-08-18T07:33:42;24.30;89.10
41318;DHT22;27067;51.554;7.026;2022-08-18T07:36:10;24.30;89.10
41318;DHT22;27067;51.554;7.026;2022-08-18T07:38:39;24.30;89.10
41318;DHT22;27067;51.554;7.026;2022-08-18T07:41:14;24.30;89.00
41318;DHT22;27067;51.554;7.026;2022-08-18T07:46:30;24.30;88.90
41318;DHT22;27067;51.554;7.026;2022-08-18T07:48:57;24.30;88.90
41318;DHT22;27067;51.554;7.026;2022-08-18T07:51:30;24.30;88.70
41318;DHT22;27067;51.554;7.026;2022-08-18T07:53:58;24.30;88.70
41318;DHT22;27067;51.554;7.026;2022-08-18T08:04:14;24.30;88.50
41318;DHT22;27067;51.554;7.026;2022-08-18T08:06:45;24.30;88.50
41318;DHT22;27067;51.554;7.026;2022-08-18T08:09:23;24.30;88.40
41318;DHT22;27067;51.554;7.026;2022-08-18T08:11:53;24.30;88.40
41318;DHT22;27067;51.554;7.026;2022-08-18T08:14:38;24.30;88.40
41318;DHT22;27067;51.554;7.026;2022-08-18T08:22:08;24.30;88.30
41318;DHT22;27067;51.554;7.026;2022-08-18T08:32:20;24.30;88.20
41318;DHT22;27067;51.554;7.026;2022-08-18T08:34:50;24.30;88.20
41318;DHT22;27067;51.554;7.026;2022-08-18T08:37:30;24.30;88.20
41318;DHT22;27067;51.554;7.026;2022-08-18T08:39:59;24.30;88.10
41318;DHT22;27067;51.554;7.026;2022-08-18T08:42:40;24.30;88.10
41318;DHT22;27067;51.554;7.026;2022-08-18T08:45:08;24.30;88.00
41318;DHT22;27067;51.554;7.026;2022-08-18T08:47:35;24.30;88.00
41318;DHT22;27067;51.554;7.026;2022-08-18T08:52:29;24.30;87.90
41318;DHT22;27067;51.554;7.026;2022-08-18T08:57:35;24.30;88.00
41318;DHT22;27067;51.554;7.026;2022-08-18T09:00:04;24.30;88.00
41318;DHT22;27067;51.554;7.026;2022-08-18T09:05:10;24.30;88.00
41318;DHT22;27067;51.554;7.026;2022-08-18T09:22:48;24.30;87.80
41318;DHT22;27067;51.554;7.026;2022-08-18T09:35:51;24.30;87.80
41318;DHT22;27067;51.554;7.026;2022-08-18T09:38:20;24.30;87.70
41318;DHT22;27067;51.554;7.026;2022-08-18T09:41:19;24.30;87.70
41318;DHT22;27067;51.554;7.026;2022-08-18T09:51:53;24.30;87.60
41318;DHT22;27067;51.554;7.026;2022-08-18T09:54:19;24.30;87.70
41318;DHT22;27067;51.554;7.026;2022-08-18T10:01:58;24.30;87.60
41318;DHT22;27067;51.554;7.026;2022-08-18T10:04:25;24.40;87.70
41318;DHT22;27067;51.554;7.026;2022-08-18T10:06:51;24.40;87.70
41318;DHT22;27067;51.554;7.026;2022-08-18T10:11:49;24.40;87.60
41318;DHT22;27067;51.554;7.026;2022-08-18T10:16:46;24.40;87.60
41318;DHT22;27067;51.554;7.026;2022-08-18T10:24:17;24.40;87.60
41318;DHT22;27067;51.554;7.026;2022-08-18T10:36:59;24.30;87.50
41318;DHT22;27067;51.554;7.026;2022-08-18T10:44:46;24.40;87.50
41318;DHT22;27067;51.554;7.026;2022-08-18T10:47:23;24.40;87.50
41318;DHT22;27067;51.554;7.026;2022-08-18T10:49:50;24.40;87.50
41318;DHT22;27067;51.554;7.026;2022-08-18T10:57:31;24.40;87.50
41318;DHT22;27067;51.554;7.026;2022-08-18T11:00:07;24.40;87.50
41318;DHT22;27067;51.554;7.026;2022-08-18T11:05:11;24.30;87.40
41318;DHT22;27067;51.554;7.026;2022-08-18T11:07:39;24.30;87.40
41318;DHT22;27067;51.554;7.026;2022-08-18T11:20:48;24.30;87.30
41318;DHT22;27067;51.554;7.026;2022-08-18T11:23:15;24.40;87.40
41318;DHT22;27067;51.554;7.026;2022-08-18T11:25:41;24.40;87.40
41318;DHT22;27067;51.554;7.026;2022-08-18T11:28:20;24.30;87.30
41318;DHT22;27067;51.554;7.026;2022-08-18T11:30:51;24.40;87.40
41318;DHT22;27067;51.554;7.026;2022-08-18T11:33:18;24.40;87.40
41318;DHT22;27067;51.554;7.026;2022-08-18T11:35:48;24.40;87.30
41318;DHT22;27067;51.554;7.026;2022-08-18T11:38:15;24.40;87.30
41318;DHT22;27067;51.554;7.026;2022-08-18T11:40:44;24.40;87.30
41318;DHT22;27067;51.554;7.026;2022-08-18T11:53:33;24.40;87.30
41318;DHT22;27067;51.554;7.026;2022-08-18T11:56:32;24.40;87.30
41318;DHT22;27067;51.554;7.026;2022-08-18T12:04:06;24.40;87.20
41318;DHT22;27067;51.554;7.026;2022-08-18T12:06:32;24.40;87.10
41318;DHT22;27067;51.554;7.026;2022-08-18T12:09:00;24.40;87.10
41318;DHT22;27067;51.554;7.026;2022-08-18T12:11:28;24.40;87.20
41318;DHT22;27067;51.554;7.026;2022-08-18T12:14:02;24.40;87.10
41318;DHT22;27067;51.554;7.026;2022-08-18T12:18:57;24.40;87.00
41318;DHT22;27067;51.554;7.026;2022-08-18T12:21:23;24.40;87.10
41318;DHT22;27067;51.554;7.026;2022-08-18T12:23:49;24.40;87.00
41318;DHT22;27067;51.554;7.026;2022-08-18T12:26:14;24.40;87.00
41318;DHT22;27067;51.554;7.026;2022-08-18T12:28:40;24.40;87.00
41318;DHT22;27067;51.554;7.026;2022-08-18T12:31:06;24.40;86.90
41318;DHT22;27067;51.554;7.026;2022-08-18T12:33:32;24.40;87.00
41318;DHT22;27067;51.554;7.026;2022-08-18T12:35:58;24.30;86.90
41318;DHT22;27067;51.554;7.026;2022-08-18T12:38:24;24.40;86.90
41318;DHT22;27067;51.554;7.026;2022-08-18T12:40:50;24.40;86.80
41318;DHT22;27067;51.554;7.026;2022-08-18T12:43:16;24.40;86.80
41318;DHT22;27067;51.554;7.026;2022-08-18T12:45:41;24.40;86.80
41318;DHT22;27067;51.554;7.026;2022-08-18T12:48:07;24.40;86.80
41318;DHT22;27067;51.554;7.026;2022-08-18T12:50:33;24.40;86.90
41318;DHT22;27067;51.554;7.026;2022-08-18T12:52:59;24.10;86.70
41318;DHT22;27067;51.554;7.026;2022-08-18T12:55:25;24.40;86.80
41318;DHT22;27067;51.554;7.026;2022-08-18T12:57:51;24.40;86.80
41318;DHT22;27067;51.554;7.026;2022-08-18T13:00:18;24.40;86.80
41318;DHT22;27067;51.554;7.026;2022-08-18T13:02:45;24.40;86.80
41318;DHT22;27067;51.554;7.026;2022-08-18T13:05:10;24.40;86.70
41318;DHT22;27067;51.554;7.026;2022-08-18T13:07:36;24.40;86.70
41318;DHT22;27067;51.554;7.026;2022-08-18T13:10:02;24.40;86.70
41318;DHT22;27067;51.554;7.026;2022-08-18T13:12:28;24.40;86.70
41318;DHT22;27067;51.554;7.026;2022-08-18T13:14:53;24.40;86.70
41318;DHT22;27067;51.554;7.026;2022-08-18T13:17:19;24.40;86.60
41318;DHT22;27067;51.554;7.026;2022-08-18T13:19:45;24.40;86.60
41318;DHT22;27067;51.554;7.026;2022-08-18T13:22:10;24.40;86.60
41318;DHT22;27067;51.554;7.026;2022-08-18T13:24:36;24.30;86.50
41318;DHT22;27067;51.554;7.026;2022-08-18T13:27:02;24.40;86.60
41318;DHT22;27067;51.554;7.026;2022-08-18T13:29:28;24.40;86.60
41318;DHT22;27067;51.554;7.026;2022-08-18T13:31:53;24.40;86.60
41318;DHT22;27067;51.554;7.026;2022-08-18T13:34:22;24.40;86.60
41318;DHT22;27067;51.554;7.026;2022-08-18T13:36:48;24.40;86.60
41318;DHT22;27067;51.554;7.026;2022-08-18T13:39:17;24.40;86.50
41318;DHT22;27067;51.554;7.026;2022-08-18T13:41:43;24.40;86.50
41318;DHT22;27067;51.554;7.026;2022-08-18T13:44:10;24.40;86.50
41318;DHT22;27067;51.554;7.026;2022-08-18T13:46:37;25.60;87.40
41318;DHT22;27067;51.554;7.026;2022-08-18T13:49:10;24.40;86.80
41318;DHT22;27067;51.554;7.026;2022-08-18T13:51:35;24.40;86.80
41318;DHT22;27067;51.554;7.026;2022-08-18T13:54:01;24.40;86.80
41318;DHT22;27067;51.554;7.026;2022-08-18T13:56:26;24.40;86.80
41318;DHT22;27067;51.554;7.026;2022-08-18T13:58:52;24.40;87.00
41318;DHT22;27067;51.554;7.026;2022-08-18T14:01:17;24.40;86.90
41318;DHT22;27067;51.554;7.026;2022-08-18T14:03:43;24.40;87.00
41318;DHT22;27067;51.554;7.026;2022-08-18T14:06:09;24.40;87.10
41318;DHT22;27067;51.554;7.026;2022-08-18T14:08:35;24.40;87.20
41318;DHT22;27067;51.554;7.026;2022-08-18T14:11:01;24.40;87.20
41318;DHT22;27067;51.554;7.026;2022-08-18T14:13:27;24.40;87.30
41318;DHT22;27067;51.554;7.026;2022-08-18T14:15:53;24.40;87.30
41318;DHT22;27067;51.554;7.026;2022-08-18T14:18:19;24.50;87.40
41318;DHT22;27067;51.554;7.026;2022-08-18T14:20:45;24.40;87.40
41318;DHT22;27067;51.554;7.026;2022-08-18T14:23:29;24.40;87.50
41318;DHT22;27067;51.554;7.026;2022-08-18T14:26:13;24.40;87.50
41318;DHT22;27067;51.554;7.026;2022-08-18T14:28:57;24.50;87.60
41318;DHT22;27067;51.554;7.026;2022-08-18T14:31:23;24.40;87.50
41318;DHT22;27067;51.554;7.026;2022-08-18T14:33:49;24.40;87.50
41318;DHT22;27067;51.554;7.026;2022-08-18T14:36:15;24.50;87.50
41318;DHT22;27067;51.554;7.026;2022-08-18T14:38:40;24.50;87.50
41318;DHT22;27067;51.554;7.026;2022-08-18T14:41:07;24.50;87.40
41318;DHT22;27067;51.554;7.026;2022-08-18T14:43:33;24.50;87.30
41318;DHT22;27067;51.554;7.026;2022-08-18T14:46:00;24.50;87.30
41318;DHT22;27067;51.554;7.026;2022-08-18T14:48:26;24.50;87.30
41318;DHT22;27067;51.554;7.026;2022-08-18T14:50:52;24.50;87.20
41318;DHT22;27067;51.554;7.026;2022-08-18T14:53:20;24.50;87.20
41318;DHT22;27067;51.554;7.026;2022-08-18T14:55:46;24.50;87.20
41318;DHT22;27067;51.554;7.026;2022-08-18T14:58:12;24.50;87.20
41318;DHT22;27067;51.554;7.026;2022-08-18T15:00:38;24.50;87.20
41318;DHT22;27067;51.554;7.026;2022-08-18T15:03:04;24.50;87.10
41318;DHT22;27067;51.554;7.026;2022-08-18T15:05:32;24.50;87.00
41318;DHT22;27067;51.554;7.026;2022-08-18T15:07:58;24.50;87.00
41318;DHT22;27067;51.554;7.026;2022-08-18T15:10:24;24.50;86.90
41318;DHT22;27067;51.554;7.026;2022-08-18T15:12:50;24.50;86.90
41318;DHT22;27067;51.554;7.026;2022-08-18T15:15:15;24.50;86.90
41318;DHT22;27067;51.554;7.026;2022-08-18T15:17:42;24.50;86.90
41318;DHT22;27067;51.554;7.026;2022-08-18T15:20:09;24.50;86.80
41318;DHT22;27067;51.554;7.026;2022-08-18T15:22:38;24.50;86.70
41318;DHT22;27067;51.554;7.026;2022-08-18T15:25:22;24.50;86.80
41318;DHT22;27067;51.554;7.026;2022-08-18T15:28:10;24.50;86.70
41318;DHT22;27067;51.554;7.026;2022-08-18T15:30:36;24.50;86.70
41318;DHT22;27067;51.554;7.026;2022-08-18T15:33:02;24.50;87.30
41318;DHT22;27067;51.554;7.026;2022-08-18T15:35:28;24.50;86.70
41318;DHT22;27067;51.554;7.026;2022-08-18T15:37:54;24.50;86.70
41318;DHT22;27067;51.554;7.026;2022-08-18T15:40:20;24.50;86.60
41318;DHT22;27067;51.554;7.026;2022-08-18T15:42:47;24.50;86.60
41318;DHT22;27067;51.554;7.026;2022-08-18T15:45:17;24.50;86.60
41318;DHT22;27067;51.554;7.026;2022-08-18T15:47:44;24.50;86.60
41318;DHT22;27067;51.554;7.026;2022-08-18T15:50:10;24.50;86.50
41318;DHT22;27067;51.554;7.026;2022-08-18T15:52:37;24.50;86.50
41318;DHT22;27067;51.554;7.026;2022-08-18T15:55:09;24.50;86.50
41318;DHT22;27067;51.554;7.026;2022-08-18T15:57:34;24.50;86.50
41318;DHT22;27067;51.554;7.026;2022-08-18T16:00:00;24.60;86.50
41318;DHT22;27067;51.554;7.026;2022-08-18T16:02:25;24.50;86.50
41318;DHT22;27067;51.554;7.026;2022-08-18T16:04:51;24.50;86.40
41318;DHT22;27067;51.554;7.026;2022-08-18T16:07:17;24.50;86.40
41318;DHT22;27067;51.554;7.026;2022-08-18T16:09:43;24.50;86.40
41318;DHT22;27067;51.554;7.026;2022-08-18T16:12:08;25.30;87.00
41318;DHT22;27067;51.554;7.026;2022-08-18T16:14:38;24.50;86.40
41318;DHT22;27067;51.554;7.026;2022-08-18T16:17:03;24.50;86.40
41318;DHT22;27067;51.554;7.026;2022-08-18T16:19:29;24.50;86.40
41318;DHT22;27067;51.554;7.026;2022-08-18T16:21:54;24.50;86.40
41318;DHT22;27067;51.554;7.026;2022-08-18T16:24:21;24.60;86.50
41318;DHT22;27067;51.554;7.026;2022-08-18T16:26:48;24.60;86.50
41318;DHT22;27067;51.554;7.026;2022-08-18T16:29:13;24.60;86.40
41318;DHT22;27067;51.554;7.026;2022-08-18T16:31:39;24.60;86.40
41318;DHT22;27067;51.554;7.026;2022-08-18T16:34:05;24.60;86.40
41318;DHT22;27067;51.554;7.026;2022-08-18T16:36:31;24.50;86.60
41318;DHT22;27067;51.554;7.026;2022-08-18T16:38:56;24.50;86.40
41318;DHT22;27067;51.554;7.026;2022-08-18T16:41:22;24.60;86.40
41318;DHT22;27067;51.554;7.026;2022-08-18T16:43:48;24.60;86.40
41318;DHT22;27067;51.554;7.026;2022-08-18T16:46:16;24.50;86.30
41318;DHT22;27067;51.554;7.026;2022-08-18T16:48:42;24.60;86.50
41318;DHT22;27067;51.554;7.026;2022-08-18T16:51:16;24.60;86.40
41318;DHT22;27067;51.554;7.026;2022-08-18T16:53:43;24.50;86.20
41318;DHT22;27067;51.554;7.026;2022-08-18T16:56:11;24.60;86.40
41318;DHT22;27067;51.554;7.026;2022-08-18T16:58:37;24.60;86.40
41318;DHT22;27067;51.554;7.026;2022-08-18T17:01:21;24.60;86.30
41318;DHT22;27067;51.554;7.026;2022-08-18T17:04:05;24.60;86.30
41318;DHT22;27067;51.554;7.026;2022-08-18T17:06:32;24.60;86.30
41318;DHT22;27067;51.554;7.026;2022-08-18T17:08:58;24.60;86.30
41318;DHT22;27067;51.554;7.026;2022-08-18T17:11:24;24.60;86.30
41318;DHT22;27067;51.554;7.026;2022-08-18T17:13:54;24.60;86.30
41318;DHT22;27067;51.554;7.026;2022-08-18T17:16:20;24.60;86.30
41318;DHT22;27067;51.554;7.026;2022-08-18T17:18:46;24.60;86.20
41318;DHT22;27067;51.554;7.026;2022-08-18T17:21:14;24.60;86.10
41318;DHT22;27067;51.554;7.026;2022-08-18T17:23:40;24.60;86.10
41318;DHT22;27067;51.554;7.026;2022-08-18T17:26:07;24.60;86.10
41318;DHT22;27067;51.554;7.026;2022-08-18T17:28:44;24.60;86.10
41318;DHT22;27067;51.554;7.026;2022-08-18T17:31:10;24.60;86.10
41318;DHT22;27067;51.554;7.026;2022-08-18T17:33:36;24.60;86.00
41318;DHT22;27067;51.554;7.026;2022-08-18T17:36:04;24.60;86.00
41318;DHT22;27067;51.554;7.026;2022-08-18T17:38:50;24.60;86.00
41318;DHT22;27067;51.554;7.026;2022-08-18T17:41:17;24.60;86.60
41318;DHT22;27067;51.554;7.026;2022-08-18T17:43:44;24.60;86.00
41318;DHT22;27067;51.554;7.026;2022-08-18T17:46:17;24.60;85.90
41318;DHT22;27067;51.554;7.026;2022-08-18T17:48:47;24.60;85.90
41318;DHT22;27067;51.554;7.026;2022-08-18T17:51:18;24.60;85.90
41318;DHT22;27067;51.554;7.026;2022-08-18T17:53:58;24.60;85.90
41318;DHT22;27067;51.554;7.026;2022-08-18T17:56:36;24.60;85.90
41318;DHT22;27067;51.554;7.026;2022-08-18T17:59:11;24.60;85.90
41318;DHT22;27067;51.554;7.026;2022-08-18T18:01:38;24.60;85.90
41318;DHT22;27067;51.554;7.026;2022-08-18T18:04:06;24.60;85.90
41318;DHT22;27067;51.554;7.026;2022-08-18T18:08:59;24.60;85.90
41318;DHT22;27067;51.554;7.026;2022-08-18T18:11:32;24.60;85.90
41318;DHT22;27067;51.554;7.026;2022-08-18T18:13:58;24.60;86.50
41318;DHT22;27067;51.554;7.026;2022-08-18T18:16:27;24.60;85.90
41318;DHT22;27067;51.554;7.026;2022-08-18T18:18:58;24.60;85.90
41318;DHT22;27067;51.554;7.026;2022-08-18T18:21:23;24.50;85.80
41318;DHT22;27067;51.554;7.026;2022-08-18T18:23:55;24.60;85.90
41318;DHT22;27067;51.554;7.026;2022-08-18T18:34:28;24.60;85.90
41318;DHT22;27067;51.554;7.026;2022-08-18T18:36:54;24.60;85.90
41318;DHT22;27067;51.554;7.026;2022-08-18T18:41:49;24.50;85.80